sensor_id;sensor_type;location;lat;lon;timestamp;pressure;altitude;pressure_sealevel;temperature;humidity
40946;BME280;55635;50.264;11.918;2023-03-01T00:00:39;96641.97;;;-0.30;67.51
40946;BME280;55635;50.264;11.918;2023-03-01T00:03:21;96635.84;;;-0.29;67.44
40946;BME280;55635;50.264;11.918;2023-03-01T00:06:03;96605.81;;;-0.49;67.64
40946;BME280;55635;50.264;11.918;2023-03-01T00:08:44;96629.34;;;-0.50;69.05
40946;BME280;55635;50.264;11.918;2023-03-01T00:11:28;96624.50;;;-0.57;69.59
40946;BME280;55635;50.264;11.918;2023-03-01T00:14:11;96622.53;;;-0.67;70.29
40946;BME280;55635;50.264;11.918;2023-03-01T00:16:52;96631.13;;;-0.65;70.00
40946;BME280;55635;50.264;11.918;2023-03-01T00:19:33;96614.91;;;-0.84;70.09
40946;BME280;55635;50.264;11.918;2023-03-01T00:22:15;96630.63;;;-0.72;69.79
40946;BME280;55635;50.264;11.918;2023-03-01T00:24:56;96621.91;;;-0.71;70.11
40946;BME280;55635;50.264;11.918;2023-03-01T00:27:37;96634.44;;;-0.63;69.29
40946;BME280;55635;50.264;11.918;2023-03-01T00:30:18;96632.56;;;-0.61;69.91
40946;BME280;55635;50.264;11.918;2023-03-01T00:32:59;96626.09;;;-0.68;69.79
40946;BME280;55635;50.264;11.918;2023-03-01T00:35:40;96626.94;;;-0.53;68.85
40946;BME280;55635;50.264;11.918;2023-03-01T00:38:21;96615.97;;;-0.59;68.82
40946;BME280;55635;50.264;11.918;2023-03-01T00:41:07;96606.09;;;-0.68;69.13
40946;BME280;55635;50.264;11.918;2023-03-01T00:43:50;96600.25;;;-0.71;69.06
40946;BME280;55635;50.264;11.918;2023-03-01T00:46:31;96612.59;;;-0.75;69.35
40946;BME280;55635;50.264;11.918;2023-03-01T00:49:13;96614.00;;;-0.69;68.99
40946;BME280;55635;50.264;11.918;2023-03-01T00:51:54;96602.91;;;-0.73;69.44
40946;BME280;55635;50.264;11.918;2023-03-01T00:54:34;96604.59;;;-0.72;69.55
40946;BME280;55635;50.264;11.918;2023-03-01T00:57:16;96594.56;;;-0.78;69.44
40946;BME280;55635;50.264;11.918;2023-03-01T00:59:57;96600.97;;;-0.83;69.42
40946;BME280;55635;50.264;11.918;2023-03-01T01:02:38;96595.88;;;-0.71;69.06
40946;BME280;55635;50.264;11.918;2023-03-01T01:05:19;96599.22;;;-0.69;68.69
40946;BME280;55635;50.264;11.918;2023-03-01T01:08:01;96602.56;;;-0.67;68.33
40946;BME280;55635;50.264;11.918;2023-03-01T01:10:44;96586.94;;;-0.81;68.26
40946;BME280;55635;50.264;11.918;2023-03-01T01:13:26;96596.31;;;-0.64;68.17
40946;BME280;55635;50.264;11.918;2023-03-01T01:16:07;96599.50;;;-0.59;67.29
40946;BME280;55635;50.264;11.918;2023-03-01T01:18:49;96579.59;;;-0.74;67.11
40946;BME280;55635;50.264;11.918;2023-03-01T01:21:30;96580.25;;;-0.71;67.22
40946;BME280;55635;50.264;11.918;2023-03-01T01:24:11;96570.41;;;-0.80;68.24
40946;BME280;55635;50.264;11.918;2023-03-01T01:26:53;96586.66;;;-0.76;68.96
40946;BME280;55635;50.264;11.918;2023-03-01T01:29:34;96578.28;;;-0.81;68.99
40946;BME280;55635;50.264;11.918;2023-03-01T01:32:15;96578.84;;;-0.90;70.34
40946;BME280;55635;50.264;11.918;2023-03-01T01:34:56;96574.94;;;-0.83;69.61
40946;BME280;55635;50.264;11.918;2023-03-01T01:37:37;96571.88;;;-0.90;69.64
40946;BME280;55635;50.264;11.918;2023-03-01T01:40:19;96567.78;;;-0.94;70.10
40946;BME280;55635;50.264;11.918;2023-03-01T01:43:00;96571.16;;;-0.92;69.79
40946;BME280;55635;50.264;11.918;2023-03-01T01:45:41;96562.28;;;-1.03;70.39
40946;BME280;55635;50.264;11.918;2023-03-01T01:48:26;96562.09;;;-1.15;70.71
40946;BME280;55635;50.264;11.918;2023-03-01T01:51:28;96550.03;;;-1.01;70.34
40946;BME280;55635;50.264;11.918;2023-03-01T01:54:36;96546.31;;;-1.12;69.99
40946;BME280;55635;50.264;11.918;2023-03-01T01:57:29;96550.00;;;-1.16;70.51
40946;BME280;55635;50.264;11.918;2023-03-01T02:00:18;96551.31;;;-1.08;69.85
40946;BME280;55635;50.264;11.918;2023-03-01T02:03:03;96553.75;;;-1.05;69.61
40946;BME280;55635;50.264;11.918;2023-03-01T02:06:38;96550.69;;;-0.98;69.22
40946;BME280;55635;50.264;11.918;2023-03-01T02:09:21;96547.03;;;-1.10;69.84
40946;BME280;55635;50.264;11.918;2023-03-01T02:12:04;96544.25;;;-1.06;69.18
40946;BME280;55635;50.264;11.918;2023-03-01T02:14:46;96540.81;;;-1.21;70.25
40946;BME280;55635;50.264;11.918;2023-03-01T02:17:27;96534.88;;;-1.23;70.66
40946;BME280;55635;50.264;11.918;2023-03-01T02:20:56;96540.44;;;-1.29;72.11
40946;BME280;55635;50.264;11.918;2023-03-01T02:23:37;96527.94;;;-1.52;72.97
40946;BME280;55635;50.264;11.918;2023-03-01T02:26:45;96521.81;;;-1.51;72.80
40946;BME280;55635;50.264;11.918;2023-03-01T02:29:28;96531.47;;;-1.53;73.12
40946;BME280;55635;50.264;11.918;2023-03-01T02:32:09;96530.75;;;-1.41;72.94
40946;BME280;55635;50.264;11.918;2023-03-01T02:34:55;96536.06;;;-1.15;72.08
40946;BME280;55635;50.264;11.918;2023-03-01T02:37:37;96514.25;;;-1.26;71.46
40946;BME280;55635;50.264;11.918;2023-03-01T02:40:19;96520.72;;;-1.19;71.42
40946;BME280;55635;50.264;11.918;2023-03-01T02:43:04;96522.00;;;-1.40;73.03
40946;BME280;55635;50.264;11.918;2023-03-01T02:45:57;96518.13;;;-1.19;72.67
40946;BME280;55635;50.264;11.918;2023-03-01T02:48:48;96522.88;;;-1.26;72.35
40946;BME280;55635;50.264;11.918;2023-03-01T02:54:33;96520.53;;;-1.16;71.59
40946;BME280;55635;50.264;11.918;2023-03-01T02:57:18;96513.69;;;-1.17;70.73
40946;BME280;55635;50.264;11.918;2023-03-01T03:00:09;96511.34;;;-1.22;70.60
40946;BME280;55635;50.264;11.918;2023-03-01T03:02:53;96507.53;;;-1.30;70.91
40946;BME280;55635;50.264;11.918;2023-03-01T03:05:38;96514.34;;;-1.14;70.00
40946;BME280;55635;50.264;11.918;2023-03-01T03:08:19;96511.16;;;-1.19;70.83
40946;BME280;55635;50.264;11.918;2023-03-01T03:11:05;96508.00;;;-1.10;69.91
40946;BME280;55635;50.264;11.918;2023-03-01T03:13:46;96505.69;;;-1.14;69.81
40946;BME280;55635;50.264;11.918;2023-03-01T03:16:29;96497.50;;;-1.22;70.00
40946;BME280;55635;50.264;11.918;2023-03-01T03:19:11;96483.75;;;-1.24;69.77
40946;BME280;55635;50.264;11.918;2023-03-01T03:21:52;96492.50;;;-1.11;69.58
40946;BME280;55635;50.264;11.918;2023-03-01T03:24:33;96496.94;;;-1.13;70.21
40946;BME280;55635;50.264;11.918;2023-03-01T03:27:18;96503.75;;;-1.11;69.01
40946;BME280;55635;50.264;11.918;2023-03-01T03:30:00;96509.41;;;-1.18;70.28
40946;BME280;55635;50.264;11.918;2023-03-01T03:32:42;96514.44;;;-1.29;70.54
40946;BME280;55635;50.264;11.918;2023-03-01T03:35:47;96510.81;;;-1.27;69.61
40946;BME280;55635;50.264;11.918;2023-03-01T03:38:29;96505.41;;;-1.38;69.74
40946;BME280;55635;50.264;11.918;2023-03-01T03:41:10;96505.59;;;-1.41;69.99
40946;BME280;55635;50.264;11.918;2023-03-01T03:43:51;96503.63;;;-1.51;70.39
40946;BME280;55635;50.264;11.918;2023-03-01T03:46:32;96502.66;;;-1.65;71.84
40946;BME280;55635;50.264;11.918;2023-03-01T03:49:13;96495.44;;;-1.59;71.17
40946;BME280;55635;50.264;11.918;2023-03-01T03:51:54;96494.91;;;-1.50;71.44
40946;BME280;55635;50.264;11.918;2023-03-01T03:54:35;96492.84;;;-1.45;70.79
40946;BME280;55635;50.264;11.918;2023-03-01T03:57:16;96499.25;;;-1.51;70.62
40946;BME280;55635;50.264;11.918;2023-03-01T03:59:57;96499.97;;;-1.63;71.93
40946;BME280;55635;50.264;11.918;2023-03-01T04:02:42;96489.47;;;-1.61;70.92
40946;BME280;55635;50.264;11.918;2023-03-01T04:05:24;96504.69;;;-1.70;72.57
40946;BME280;55635;50.264;11.918;2023-03-01T04:08:05;96515.41;;;-1.60;71.37
40946;BME280;55635;50.264;11.918;2023-03-01T04:10:51;96503.84;;;-1.70;72.21
40946;BME280;55635;50.264;11.918;2023-03-01T04:13:32;96518.47;;;-1.53;70.59
40946;BME280;55635;50.264;11.918;2023-03-01T04:16:13;96521.25;;;-1.56;70.61
40946;BME280;55635;50.264;11.918;2023-03-01T04:18:54;96523.38;;;-1.63;70.69
40946;BME280;55635;50.264;11.918;2023-03-01T04:21:35;96523.38;;;-1.49;69.83
40946;BME280;55635;50.264;11.918;2023-03-01T04:24:16;96516.88;;;-1.56;69.80
40946;BME280;55635;50.264;11.918;2023-03-01T04:26:58;96507.50;;;-1.58;69.67
40946;BME280;55635;50.264;11.918;2023-03-01T04:29:38;96506.91;;;-1.78;71.07
40946;BME280;55635;50.264;11.918;2023-03-01T04:32:20;96508.31;;;-1.72;70.53
40946;BME280;55635;50.264;11.918;2023-03-01T04:35:01;96508.56;;;-1.77;70.86
40946;BME280;55635;50.264;11.918;2023-03-01T04:37:43;96506.81;;;-1.76;70.77
40946;BME280;55635;50.264;11.918;2023-03-01T04:40:26;96497.03;;;-1.87;71.34
40946;BME280;55635;50.264;11.918;2023-03-01T04:43:08;96493.19;;;-1.95;71.82
40946;BME280;55635;50.264;11.918;2023-03-01T04:45:49;96488.47;;;-1.89;71.86
40946;BME280;55635;50.264;11.918;2023-03-01T04:48:31;96493.31;;;-1.83;72.31
40946;BME280;55635;50.264;11.918;2023-03-01T04:51:13;96483.63;;;-1.95;71.99
40946;BME280;55635;50.264;11.918;2023-03-01T04:53:54;96490.16;;;-1.88;72.51
40946;BME280;55635;50.264;11.918;2023-03-01T04:56:35;96485.16;;;-1.77;70.91
40946;BME280;55635;50.264;11.918;2023-03-01T04:59:16;96489.53;;;-1.77;70.23
40946;BME280;55635;50.264;11.918;2023-03-01T05:01:58;96481.47;;;-1.73;70.12
40946;BME280;55635;50.264;11.918;2023-03-01T05:04:41;96486.94;;;-1.77;70.22
40946;BME280;55635;50.264;11.918;2023-03-01T05:07:22;96491.09;;;-1.89;71.69
40946;BME280;55635;50.264;11.918;2023-03-01T05:10:05;96502.53;;;-1.77;70.38
40946;BME280;55635;50.264;11.918;2023-03-01T05:12:46;96494.69;;;-1.91;70.93
40946;BME280;55635;50.264;11.918;2023-03-01T05:15:29;96496.88;;;-1.84;71.40
40946;BME280;55635;50.264;11.918;2023-03-01T05:18:11;96492.22;;;-1.79;70.32
40946;BME280;55635;50.264;11.918;2023-03-01T05:21:02;96487.69;;;-1.75;69.84
40946;BME280;55635;50.264;11.918;2023-03-01T05:23:45;96480.91;;;-1.78;69.38
40946;BME280;55635;50.264;11.918;2023-03-01T05:26:27;96477.19;;;-1.88;70.21
40946;BME280;55635;50.264;11.918;2023-03-01T05:29:09;96479.59;;;-1.85;69.88
40946;BME280;55635;50.264;11.918;2023-03-01T05:32:02;96465.03;;;-1.87;69.90
40946;BME280;55635;50.264;11.918;2023-03-01T05:34:43;96471.06;;;-1.87;69.03
40946;BME280;55635;50.264;11.918;2023-03-01T05:37:27;96476.50;;;-1.91;70.75
40946;BME280;55635;50.264;11.918;2023-03-01T05:40:18;96468.34;;;-1.85;69.37
40946;BME280;55635;50.264;11.918;2023-03-01T05:43:00;96479.81;;;-2.03;69.94
40946;BME280;55635;50.264;11.918;2023-03-01T05:45:42;96476.06;;;-2.13;70.60
40946;BME280;55635;50.264;11.918;2023-03-01T05:48:23;96477.59;;;-2.25;71.53
40946;BME280;55635;50.264;11.918;2023-03-01T05:51:04;96472.91;;;-2.18;71.07
40946;BME280;55635;50.264;11.918;2023-03-01T05:53:45;96465.53;;;-2.26;71.00
40946;BME280;55635;50.264;11.918;2023-03-01T05:56:26;96462.59;;;-2.20;70.48
40946;BME280;55635;50.264;11.918;2023-03-01T05:59:07;96473.75;;;-2.18;70.96
40946;BME280;55635;50.264;11.918;2023-03-01T06:01:48;96475.31;;;-2.15;70.35
40946;BME280;55635;50.264;11.918;2023-03-01T06:04:29;96466.63;;;-2.14;70.98
40946;BME280;55635;50.264;11.918;2023-03-01T06:07:10;96471.59;;;-1.96;71.25
40946;BME280;55635;50.264;11.918;2023-03-01T06:09:52;96478.75;;;-1.85;70.03
40946;BME280;55635;50.264;11.918;2023-03-01T06:12:34;96473.59;;;-2.01;69.96
40946;BME280;55635;50.264;11.918;2023-03-01T06:15:16;96470.78;;;-2.12;70.11
40946;BME280;55635;50.264;11.918;2023-03-01T06:17:57;96475.22;;;-2.14;70.72
40946;BME280;55635;50.264;11.918;2023-03-01T06:20:39;96478.06;;;-2.03;70.43
40946;BME280;55635;50.264;11.918;2023-03-01T06:23:20;96470.44;;;-2.06;69.91
40946;BME280;55635;50.264;11.918;2023-03-01T06:26:04;96484.06;;;-1.73;69.61
40946;BME280;55635;50.264;11.918;2023-03-01T06:28:45;96487.28;;;-1.53;69.43
40946;BME280;55635;50.264;11.918;2023-03-01T06:31:27;96480.38;;;-0.70;70.38
40946;BME280;55635;50.264;11.918;2023-03-01T06:34:08;96480.44;;;0.23;67.67
40946;BME280;55635;50.264;11.918;2023-03-01T06:36:51;96465.53;;;1.01;64.62
40946;BME280;55635;50.264;11.918;2023-03-01T06:39:33;96460.91;;;1.66;64.05
40946;BME280;55635;50.264;11.918;2023-03-01T06:42:14;96454.34;;;2.08;62.17
40946;BME280;55635;50.264;11.918;2023-03-01T06:44:55;96450.81;;;2.20;59.54
40946;BME280;55635;50.264;11.918;2023-03-01T06:47:36;96452.78;;;2.40;59.50
40946;BME280;55635;50.264;11.918;2023-03-01T06:50:18;96456.34;;;2.39;58.78
40946;BME280;55635;50.264;11.918;2023-03-01T06:53:00;96450.00;;;2.77;59.68
40946;BME280;55635;50.264;11.918;2023-03-01T06:55:41;96442.28;;;2.97;59.08
40946;BME280;55635;50.264;11.918;2023-03-01T06:58:24;96455.25;;;3.32;59.38
40946;BME280;55635;50.264;11.918;2023-03-01T07:01:07;96452.50;;;3.99;58.87
40946;BME280;55635;50.264;11.918;2023-03-01T07:03:49;96456.00;;;4.40;55.98
40946;BME280;55635;50.264;11.918;2023-03-01T07:06:30;96455.78;;;4.85;55.55
40946;BME280;55635;50.264;11.918;2023-03-01T07:09:14;96434.81;;;5.25;52.96
40946;BME280;55635;50.264;11.918;2023-03-01T07:11:57;96435.00;;;5.42;51.64
40946;BME280;55635;50.264;11.918;2023-03-01T07:14:38;96433.09;;;6.03;51.31
40946;BME280;55635;50.264;11.918;2023-03-01T07:17:19;96428.53;;;6.34;50.50
40946;BME280;55635;50.264;11.918;2023-03-01T07:20:01;96436.28;;;7.21;49.95
40946;BME280;55635;50.264;11.918;2023-03-01T07:22:42;96430.41;;;7.27;47.44
40946;BME280;55635;50.264;11.918;2023-03-01T07:25:24;96434.78;;;7.73;47.18
40946;BME280;55635;50.264;11.918;2023-03-01T07:28:06;96431.16;;;8.18;45.47
40946;BME280;55635;50.264;11.918;2023-03-01T07:30:48;96423.38;;;8.70;45.57
40946;BME280;55635;50.264;11.918;2023-03-01T07:33:29;96412.91;;;8.86;44.32
40946;BME280;55635;50.264;11.918;2023-03-01T07:36:10;96408.81;;;8.92;44.69
40946;BME280;55635;50.264;11.918;2023-03-01T07:38:51;96408.75;;;9.09;43.43
40946;BME280;55635;50.264;11.918;2023-03-01T07:41:33;96404.00;;;9.47;43.12
40946;BME280;55635;50.264;11.918;2023-03-01T07:44:14;96410.25;;;9.38;42.17
40946;BME280;55635;50.264;11.918;2023-03-01T07:46:56;96405.56;;;9.65;42.30
40946;BME280;55635;50.264;11.918;2023-03-01T07:49:38;96418.75;;;10.07;42.23
40946;BME280;55635;50.264;11.918;2023-03-01T07:52:20;96424.50;;;10.36;41.69
40946;BME280;55635;50.264;11.918;2023-03-01T07:55:01;96422.78;;;10.27;42.44
40946;BME280;55635;50.264;11.918;2023-03-01T07:57:42;96417.81;;;10.24;41.11
40946;BME280;55635;50.264;11.918;2023-03-01T08:00:24;96409.25;;;10.71;40.89
40946;BME280;55635;50.264;11.918;2023-03-01T08:03:05;96417.19;;;10.71;40.04
40946;BME280;55635;50.264;11.918;2023-03-01T08:05:46;96417.88;;;10.65;41.11
40946;BME280;55635;50.264;11.918;2023-03-01T08:08:27;96400.59;;;11.01;39.62
40946;BME280;55635;50.264;11.918;2023-03-01T08:11:11;96399.63;;;10.94;40.25
40946;BME280;55635;50.264;11.918;2023-03-01T08:13:53;96394.69;;;10.43;40.04
40946;BME280;55635;50.264;11.918;2023-03-01T08:16:34;96391.66;;;10.62;39.64
40946;BME280;55635;50.264;11.918;2023-03-01T08:19:16;96395.81;;;10.56;39.74
40946;BME280;55635;50.264;11.918;2023-03-01T08:21:57;96398.97;;;10.68;39.87
40946;BME280;55635;50.264;11.918;2023-03-01T08:24:38;96395.59;;;11.14;39.51
40946;BME280;55635;50.264;11.918;2023-03-01T08:27:19;96391.72;;;11.33;38.76
40946;BME280;55635;50.264;11.918;2023-03-01T08:30:00;96378.69;;;11.07;38.50
40946;BME280;55635;50.264;11.918;2023-03-01T08:32:41;96376.38;;;11.12;38.96
40946;BME280;55635;50.264;11.918;2023-03-01T08:35:23;96373.94;;;10.62;39.18
40946;BME280;55635;50.264;11.918;2023-03-01T08:38:04;96361.63;;;11.10;39.74
40946;BME280;55635;50.264;11.918;2023-03-01T08:40:44;96371.38;;;11.17;38.71
40946;BME280;55635;50.264;11.918;2023-03-01T08:43:25;96366.31;;;11.38;38.71
40946;BME280;55635;50.264;11.918;2023-03-01T08:46:06;96363.94;;;11.13;38.25
40946;BME280;55635;50.264;11.918;2023-03-01T08:48:47;96367.44;;;11.91;38.45
40946;BME280;55635;50.264;11.918;2023-03-01T08:51:29;96360.31;;;12.14;37.34
40946;BME280;55635;50.264;11.918;2023-03-01T08:54:15;96353.72;;;12.10;37.10
40946;BME280;55635;50.264;11.918;2023-03-01T08:56:56;96341.59;;;12.08;36.81
40946;BME280;55635;50.264;11.918;2023-03-01T08:59:39;96350.31;;;12.62;36.70
40946;BME280;55635;50.264;11.918;2023-03-01T09:02:21;96350.19;;;12.32;36.61
40946;BME280;55635;50.264;11.918;2023-03-01T09:05:03;96350.25;;;11.79;37.22
40946;BME280;55635;50.264;11.918;2023-03-01T09:07:44;96350.03;;;11.88;36.90
40946;BME280;55635;50.264;11.918;2023-03-01T09:10:25;96352.34;;;11.83;36.90
40946;BME280;55635;50.264;11.918;2023-03-01T09:13:06;96357.50;;;11.85;37.43
40946;BME280;55635;50.264;11.918;2023-03-01T09:15:47;96348.38;;;12.10;37.85
40946;BME280;55635;50.264;11.918;2023-03-01T09:18:28;96350.78;;;11.19;37.77
40946;BME280;55635;50.264;11.918;2023-03-01T09:21:15;96351.22;;;11.78;38.14
40946;BME280;55635;50.264;11.918;2023-03-01T09:23:57;96341.66;;;12.22;36.97
40946;BME280;55635;50.264;11.918;2023-03-01T09:26:39;96347.16;;;12.43;37.44
40946;BME280;55635;50.264;11.918;2023-03-01T09:29:20;96338.25;;;12.51;36.49
40946;BME280;55635;50.264;11.918;2023-03-01T09:32:01;96338.94;;;13.05;37.05
40946;BME280;55635;50.264;11.918;2023-03-01T09:34:42;96328.69;;;12.94;36.10
40946;BME280;55635;50.264;11.918;2023-03-01T09:37:41;96338.03;;;13.13;36.16
40946;BME280;55635;50.264;11.918;2023-03-01T09:40:26;96328.66;;;13.46;35.71
40946;BME280;55635;50.264;11.918;2023-03-01T09:43:32;96328.41;;;13.26;37.17
40946;BME280;55635;50.264;11.918;2023-03-01T09:46:15;96319.34;;;12.98;36.70
40946;BME280;55635;50.264;11.918;2023-03-01T09:49:01;96313.25;;;13.27;36.41
40946;BME280;55635;50.264;11.918;2023-03-01T09:54:38;96316.97;;;14.33;35.06
40946;BME280;55635;50.264;11.918;2023-03-01T09:57:40;96321.38;;;14.47;33.85
40946;BME280;55635;50.264;11.918;2023-03-01T10:00:46;96316.88;;;14.48;34.58
40946;BME280;55635;50.264;11.918;2023-03-01T10:03:46;96317.81;;;14.40;34.71
40946;BME280;55635;50.264;11.918;2023-03-01T10:06:29;96309.06;;;14.46;33.62
40946;BME280;55635;50.264;11.918;2023-03-01T10:09:17;96304.22;;;14.56;33.57
40946;BME280;55635;50.264;11.918;2023-03-01T10:12:01;96299.81;;;14.42;34.30
40946;BME280;55635;50.264;11.918;2023-03-01T10:15:18;96306.63;;;14.30;33.62
40946;BME280;55635;50.264;11.918;2023-03-01T10:18:20;96297.22;;;14.77;33.80
40946;BME280;55635;50.264;11.918;2023-03-01T10:21:15;96298.19;;;14.48;33.79
40946;BME280;55635;50.264;11.918;2023-03-01T10:24:12;96293.78;;;13.98;34.31
40946;BME280;55635;50.264;11.918;2023-03-01T10:27:01;96287.91;;;14.02;34.86
40946;BME280;55635;50.264;11.918;2023-03-01T10:33:03;96281.09;;;13.79;34.30
40946;BME280;55635;50.264;11.918;2023-03-01T10:35:54;96291.13;;;14.19;35.33
40946;BME280;55635;50.264;11.918;2023-03-01T10:38:54;96280.13;;;14.29;35.19
40946;BME280;55635;50.264;11.918;2023-03-01T10:44:49;96277.66;;;14.69;34.29
40946;BME280;55635;50.264;11.918;2023-03-01T10:47:30;96271.66;;;14.40;34.69
40946;BME280;55635;50.264;11.918;2023-03-01T10:50:24;96276.44;;;15.06;34.34
40946;BME280;55635;50.264;11.918;2023-03-01T10:53:05;96275.31;;;15.22;33.75
40946;BME280;55635;50.264;11.918;2023-03-01T10:56:12;96268.53;;;15.26;33.78
40946;BME280;55635;50.264;11.918;2023-03-01T10:59:00;96265.03;;;15.19;33.37
40946;BME280;55635;50.264;11.918;2023-03-01T11:01:42;96258.00;;;15.52;33.35
40946;BME280;55635;50.264;11.918;2023-03-01T11:04:22;96259.63;;;15.12;33.27
40946;BME280;55635;50.264;11.918;2023-03-01T11:07:06;96241.41;;;14.88;33.29
40946;BME280;55635;50.264;11.918;2023-03-01T11:09:47;96244.44;;;15.13;33.07
40946;BME280;55635;50.264;11.918;2023-03-01T11:12:27;96237.97;;;14.94;34.21
40946;BME280;55635;50.264;11.918;2023-03-01T11:15:27;96232.34;;;14.83;33.25
40946;BME280;55635;50.264;11.918;2023-03-01T11:18:22;96240.16;;;15.18;33.20
40946;BME280;55635;50.264;11.918;2023-03-01T11:21:04;96237.09;;;15.21;32.95
40946;BME280;55635;50.264;11.918;2023-03-01T11:23:46;96231.13;;;15.19;33.61
40946;BME280;55635;50.264;11.918;2023-03-01T11:26:30;96222.59;;;15.03;33.63
40946;BME280;55635;50.264;11.918;2023-03-01T11:32:11;96211.91;;;15.03;33.36
40946;BME280;55635;50.264;11.918;2023-03-01T11:35:04;96217.06;;;15.04;33.14
40946;BME280;55635;50.264;11.918;2023-03-01T11:41:28;96206.41;;;15.11;33.27
40946;BME280;55635;50.264;11.918;2023-03-01T11:44:24;96200.50;;;14.81;34.83
40946;BME280;55635;50.264;11.918;2023-03-01T11:48:07;96197.59;;;14.76;33.67
40946;BME280;55635;50.264;11.918;2023-03-01T11:50:57;96205.41;;;14.78;34.06
40946;BME280;55635;50.264;11.918;2023-03-01T11:56:41;96194.81;;;15.45;34.69
40946;BME280;55635;50.264;11.918;2023-03-01T11:59:36;96199.13;;;14.92;34.00
40946;BME280;55635;50.264;11.918;2023-03-01T12:02:56;96204.78;;;14.76;34.38
40946;BME280;55635;50.264;11.918;2023-03-01T12:15:39;96184.56;;;14.60;35.28
40946;BME280;55635;50.264;11.918;2023-03-01T12:25:17;96176.63;;;15.14;34.47
40946;BME280;55635;50.264;11.918;2023-03-01T12:35:03;96166.19;;;15.32;33.51
40946;BME280;55635;50.264;11.918;2023-03-01T12:37:45;96170.84;;;15.04;33.06
40946;BME280;55635;50.264;11.918;2023-03-01T12:43:36;96176.56;;;14.94;34.23
40946;BME280;55635;50.264;11.918;2023-03-01T12:50:01;96168.75;;;14.58;35.57
40946;BME280;55635;50.264;11.918;2023-03-01T12:52:52;96170.69;;;14.43;36.13
40946;BME280;55635;50.264;11.918;2023-03-01T12:55:38;96159.22;;;13.94;36.23
40946;BME280;55635;50.264;11.918;2023-03-01T13:05:06;96151.31;;;14.07;36.47
40946;BME280;55635;50.264;11.918;2023-03-01T13:08:16;96144.25;;;14.21;35.56
40946;BME280;55635;50.264;11.918;2023-03-01T13:11:03;96134.34;;;13.87;35.56
40946;BME280;55635;50.264;11.918;2023-03-01T13:13:44;96129.22;;;13.43;36.52
40946;BME280;55635;50.264;11.918;2023-03-01T13:22:29;96145.22;;;13.07;37.67
40946;BME280;55635;50.264;11.918;2023-03-01T13:25:17;96138.88;;;13.23;37.03
40946;BME280;55635;50.264;11.918;2023-03-01T13:28:53;96141.06;;;13.19;37.52
40946;BME280;55635;50.264;11.918;2023-03-01T13:34:41;96134.22;;;11.93;38.62
40946;BME280;55635;50.264;11.918;2023-03-01T13:37:29;96141.84;;;11.05;40.56
40946;BME280;55635;50.264;11.918;2023-03-01T13:43:38;96132.50;;;12.00;41.00
40946;BME280;55635;50.264;11.918;2023-03-01T13:46:23;96137.66;;;12.45;38.85
40946;BME280;55635;50.264;11.918;2023-03-01T13:49:04;96127.28;;;11.92;40.46
40946;BME280;55635;50.264;11.918;2023-03-01T13:51:49;96141.06;;;12.25;39.89
40946;BME280;55635;50.264;11.918;2023-03-01T13:54:33;96132.06;;;12.11;39.94
40946;BME280;55635;50.264;11.918;2023-03-01T13:57:23;96128.38;;;11.37;40.82
40946;BME280;55635;50.264;11.918;2023-03-01T14:00:06;96145.53;;;11.27;41.24
40946;BME280;55635;50.264;11.918;2023-03-01T14:03:16;96139.97;;;10.91;42.84
40946;BME280;55635;50.264;11.918;2023-03-01T14:06:04;96137.88;;;11.55;42.02
40946;BME280;55635;50.264;11.918;2023-03-01T14:09:00;96129.50;;;11.20;42.13
40946;BME280;55635;50.264;11.918;2023-03-01T14:12:26;96145.31;;;11.36;42.45
40946;BME280;55635;50.264;11.918;2023-03-01T14:15:25;96154.38;;;11.19;42.56
40946;BME280;55635;50.264;11.918;2023-03-01T14:18:25;96141.31;;;11.40;42.45
40946;BME280;55635;50.264;11.918;2023-03-01T14:21:14;96150.31;;;10.78;42.77
40946;BME280;55635;50.264;11.918;2023-03-01T14:23:58;96146.25;;;10.59;43.91
40946;BME280;55635;50.264;11.918;2023-03-01T14:26:43;96136.06;;;10.79;43.88
40946;BME280;55635;50.264;11.918;2023-03-01T14:29:34;96123.59;;;10.49;43.70
40946;BME280;55635;50.264;11.918;2023-03-01T14:32:31;96138.06;;;10.69;44.94
40946;BME280;55635;50.264;11.918;2023-03-01T14:35:28;96133.22;;;10.42;45.09
40946;BME280;55635;50.264;11.918;2023-03-01T14:38:36;96139.94;;;9.89;46.41
40946;BME280;55635;50.264;11.918;2023-03-01T14:41:23;96139.22;;;10.35;45.41
40946;BME280;55635;50.264;11.918;2023-03-01T14:44:22;96139.91;;;9.97;45.31
40946;BME280;55635;50.264;11.918;2023-03-01T14:47:04;96131.06;;;9.66;46.03
40946;BME280;55635;50.264;11.918;2023-03-01T14:49:45;96125.88;;;9.72;46.04
40946;BME280;55635;50.264;11.918;2023-03-01T14:52:40;96136.81;;;9.85;45.22
40946;BME280;55635;50.264;11.918;2023-03-01T14:55:30;96118.47;;;9.44;45.91
40946;BME280;55635;50.264;11.918;2023-03-01T14:58:15;96120.94;;;9.61;46.04
40946;BME280;55635;50.264;11.918;2023-03-01T15:01:03;96132.69;;;9.59;45.67
40946;BME280;55635;50.264;11.918;2023-03-01T15:03:47;96134.97;;;9.05;46.72
40946;BME280;55635;50.264;11.918;2023-03-01T15:06:29;96123.44;;;9.22;46.67
40946;BME280;55635;50.264;11.918;2023-03-01T15:09:17;96121.09;;;8.95;47.56
40946;BME280;55635;50.264;11.918;2023-03-01T15:11:58;96111.31;;;8.88;47.93
40946;BME280;55635;50.264;11.918;2023-03-01T15:14:42;96111.31;;;8.80;47.81
40946;BME280;55635;50.264;11.918;2023-03-01T15:17:32;96126.66;;;8.84;48.00
40946;BME280;55635;50.264;11.918;2023-03-01T15:20:19;96116.03;;;8.26;48.86
40946;BME280;55635;50.264;11.918;2023-03-01T15:23:12;96135.81;;;8.48;48.86
40946;BME280;55635;50.264;11.918;2023-03-01T15:25:58;96124.91;;;8.43;49.07
40946;BME280;55635;50.264;11.918;2023-03-01T15:28:48;96122.00;;;8.62;48.43
40946;BME280;55635;50.264;11.918;2023-03-01T15:31:36;96125.72;;;8.43;48.99
40946;BME280;55635;50.264;11.918;2023-03-01T15:34:46;96119.75;;;8.41;49.46
40946;BME280;55635;50.264;11.918;2023-03-01T15:37:53;96117.81;;;8.43;48.55
40946;BME280;55635;50.264;11.918;2023-03-01T15:40:34;96145.31;;;8.33;49.37